Decoded Metar for SBFL (FLORIANOPOLIS in BRAZIL) (IATA:FLN) | Meteo·Mobile Aviation Weather
aviador You're here:

SBFL Decoded Metar

FLORIANOPOLIS in BRAZIL
Report Time2018-09-19 20:00:00
UTC Time2018-09-19 20:13:02
Flight Rules vfr VFR
Wind140° at 04 kt
W.Decomp.*RWY 14: 3.8 kt HW 1.3 kt RCW
RWY 21: 2.5 kt HW 3.1 kt LCW
W.Rank140° ranks 11
Current wind is below 140° avg. (7.3)
Visibility9999 m
Phenomena:N/A
Clouds:N/A
Expected CloudBase > 1,600 ft AGL from Temp-Dew spread
CeilingNone
Temp23°C (ISA +8)
Dew Point19°C (78% RH)
QNH1011 hPa
Density Alt1,309 ft
Elevation16 ft
Report Wrong Elevation
Raw Report
METAR SBFL 192000Z 14004KT CAVOK 23/19 Q1011=

Extra information for SBFL:More info

Metar Taf Metar & Taf Last 4 Metars F.Rules Stats Wind Profile Meteogram Temp Stats Airport Information Weather charts Add Link Nearby VenuesMetar ALERT Operation Metar Decoded Social comments